Time;durP1;ratioP1;P1;durP2;ratioP2;P2;SDS_P1;SDS_P2;PMS_P1;PMS_P2;Temp;Humidity;BMP_temperature;BMP_pressure;BME280_temperature;BME280_humidity;BME280_pressure;Samples;Min_cycle;Max_cycle;Signal;HPM_P1;HPM_P2
2022/12/19 00:01:39;;;;;;;30.05;12.23;;;;;;;;;;7393784;19;20003;-66
2022/12/19 00:04:10;;;;;;;26.17;10.75;;;;;;;;;;7393040;19;19999;-66
2022/12/19 00:06:37;;;;;;;29.42;12.43;;;;;;;;;;7395105;19;20328;-66
2022/12/19 00:09:03;;;;;;;26.60;10.35;;;;;;;;;;7394810;19;20619;-66
2022/12/19 00:11:29;;;;;;;24.70;10.70;;;;;;;;;;7392706;19;20002;-66
2022/12/19 00:13:54;;;;;;;27.85;11.82;;;;;;;;;;7392701;19;20456;-65
2022/12/19 00:16:28;;;;;;;27.60;11.15;;;;;;;;;;7394405;19;20421;-66
2022/12/19 00:18:55;;;;;;;29.65;12.00;;;;;;;;;;7394968;19;19998;-65
2022/12/19 00:21:22;;;;;;;28.60;10.73;;;;;;;;;;7394251;19;20002;-65
2022/12/19 00:23:49;;;;;;;25.17;11.80;;;;;;;;;;7392682;19;20002;-66
2022/12/19 00:26:24;;;;;;;25.33;11.32;;;;;;;;;;7394273;19;20015;-66
2022/12/19 00:28:52;;;;;;;26.95;11.43;;;;;;;;;;7394030;19;20016;-66
2022/12/19 00:31:19;;;;;;;25.27;10.73;;;;;;;;;;7392121;19;20003;-66
2022/12/19 00:33:45;;;;;;;30.58;14.00;;;;;;;;;;7392515;19;20019;-66
2022/12/19 00:36:17;;;;;;;35.00;12.35;;;;;;;;;;7393810;19;19998;-66
2022/12/19 00:38:43;;;;;;;26.00;12.10;;;;;;;;;;7393911;19;20009;-66
2022/12/19 00:41:17;;;;;;;31.92;13.25;;;;;;;;;;7393500;19;19999;-66
2022/12/19 00:43:43;;;;;;;32.65;12.85;;;;;;;;;;7392302;19;20457;-65
2022/12/19 00:46:11;;;;;;;29.60;10.10;;;;;;;;;;7391966;19;20003;-66
2022/12/19 00:48:36;;;;;;;26.85;11.65;;;;;;;;;;7393621;19;20011;-65
2022/12/19 00:51:04;;;;;;;28.23;12.48;;;;;;;;;;7390319;19;20021;-66
2022/12/19 00:53:29;;;;;;;28.90;11.38;;;;;;;;;;7395646;19;19998;-65
2022/12/19 00:55:55;;;;;;;22.50;10.18;;;;;;;;;;7393166;19;20503;-65
2022/12/19 00:58:20;;;;;;;30.35;11.50;;;;;;;;;;7393480;19;20006;-65
2022/12/19 01:00:46;;;;;;;29.80;11.70;;;;;;;;;;7393279;19;19995;-65
2022/12/19 01:03:11;;;;;;;31.98;10.65;;;;;;;;;;7391841;19;20003;-65
2022/12/19 01:05:37;;;;;;;29.55;11.93;;;;;;;;;;7393306;19;20014;-65
2022/12/19 01:08:02;;;;;;;30.38;11.30;;;;;;;;;;7393020;19;20009;-65
2022/12/19 01:10:27;;;;;;;31.83;12.35;;;;;;;;;;7391647;19;19994;-65
2022/12/19 01:12:53;;;;;;;29.05;12.32;;;;;;;;;;7391746;19;20005;-67
2022/12/19 01:15:19;;;;;;;26.77;11.15;;;;;;;;;;7392554;19;20003;-65
2022/12/19 01:17:46;;;;;;;30.52;11.45;;;;;;;;;;7392547;19;20003;-65
2022/12/19 01:20:15;;;;;;;28.35;11.43;;;;;;;;;;7392620;19;20010;-67
2022/12/19 01:22:40;;;;;;;30.02;12.68;;;;;;;;;;7391597;19;20002;-67
2022/12/19 01:25:06;;;;;;;25.70;10.68;;;;;;;;;;7390262;19;20021;-67
2022/12/19 01:27:31;;;;;;;26.08;11.15;;;;;;;;;;7392106;19;19998;-67
2022/12/19 01:29:56;;;;;;;29.23;11.30;;;;;;;;;;7389805;19;20007;-68
2022/12/19 01:32:22;;;;;;;23.90;11.60;;;;;;;;;;7391583;19;20050;-67
2022/12/19 01:34:48;;;;;;;26.13;10.25;;;;;;;;;;7389635;19;20469;-67
2022/12/19 01:37:16;;;;;;;29.75;10.70;;;;;;;;;;7391359;19;19994;-67
2022/12/19 01:39:42;;;;;;;33.08;12.55;;;;;;;;;;7392466;19;20069;-67
2022/12/19 01:42:20;;;;;;;24.85;11.68;;;;;;;;;;7391631;19;20003;-67
2022/12/19 01:45:04;;;;;;;22.42;10.85;;;;;;;;;;7389322;19;20015;-67
2022/12/19 01:47:32;;;;;;;24.48;9.18;;;;;;;;;;7389996;19;20447;-67
2022/12/19 01:49:58;;;;;;;28.42;10.98;;;;;;;;;;7390327;19;20001;-67
2022/12/19 01:52:23;;;;;;;24.73;12.20;;;;;;;;;;7394939;19;19998;-67
2022/12/19 01:54:49;;;;;;;32.03;11.52;;;;;;;;;;7393827;19;19999;-67
2022/12/19 01:57:17;;;;;;;29.33;10.02;;;;;;;;;;7389271;19;19997;-66
2022/12/19 01:59:51;;;;;;;27.23;11.00;;;;;;;;;;7391159;19;19990;-67
2022/12/19 02:02:45;;;;;;;26.30;11.38;;;;;;;;;;7391245;19;20058;-67
2022/12/19 02:05:13;;;;;;;31.38;11.45;;;;;;;;;;7389645;19;20351;-66
2022/12/19 02:07:39;;;;;;;34.42;11.52;;;;;;;;;;7392030;19;20015;-66
2022/12/19 02:10:05;;;;;;;32.10;13.02;;;;;;;;;;7390165;19;20066;-66
2022/12/19 02:12:36;;;;;;;33.65;12.07;;;;;;;;;;7395356;19;20027;-67
2022/12/19 02:15:01;;;;;;;37.30;12.38;;;;;;;;;;7389017;19;20007;-67
2022/12/19 02:17:33;;;;;;;35.05;11.95;;;;;;;;;;7391257;19;20314;-67
2022/12/19 02:20:01;;;;;;;31.50;12.07;;;;;;;;;;7391022;19;19999;-66
2022/12/19 02:22:47;;;;;;;25.55;9.70;;;;;;;;;;7390681;19;20473;-67
2022/12/19 02:25:33;;;;;;;24.95;10.95;;;;;;;;;;7390258;19;20018;-67
2022/12/19 02:28:30;;;;;;;24.63;10.10;;;;;;;;;;7390956;19;20492;-66
2022/12/19 02:31:04;;;;;;;26.50;10.10;;;;;;;;;;7389839;19;19995;-66
2022/12/19 02:33:43;;;;;;;31.33;10.77;;;;;;;;;;7389171;19;20028;-65
2022/12/19 02:36:17;;;;;;;26.67;10.38;;;;;;;;;;7390164;19;19995;-67
2022/12/19 02:38:58;;;;;;;32.97;12.07;;;;;;;;;;7390155;19;20013;-67
2022/12/19 02:41:46;;;;;;;30.70;12.38;;;;;;;;;;7390459;19;20013;-67
2022/12/19 02:44:18;;;;;;;29.02;10.95;;;;;;;;;;7388005;19;20422;-67
2022/12/19 02:46:45;;;;;;;19.38;9.85;;;;;;;;;;7388847;19;20010;-67
2022/12/19 02:49:12;;;;;;;24.15;9.25;;;;;;;;;;7389964;19;20061;-67
2022/12/19 02:51:37;;;;;;;30.58;12.00;;;;;;;;;;7387923;19;20009;-66
2022/12/19 02:54:03;;;;;;;29.00;11.93;;;;;;;;;;7390490;19;20471;-67
2022/12/19 02:56:40;;;;;;;30.77;12.43;;;;;;;;;;7389854;19;20023;-67
2022/12/19 02:59:14;;;;;;;29.17;11.02;;;;;;;;;;7388754;19;19994;-65
2022/12/19 03:01:50;;;;;;;41.38;10.95;;;;;;;;;;7388262;19;20475;-65
2022/12/19 03:04:21;;;;;;;25.33;11.15;;;;;;;;;;7387740;19;19999;-65
2022/12/19 03:06:59;;;;;;;27.88;11.15;;;;;;;;;;7389680;19;20032;-66
2022/12/19 03:09:44;;;;;;;28.35;10.63;;;;;;;;;;7393500;19;20093;-66
2022/12/19 03:12:20;;;;;;;28.83;11.65;;;;;;;;;;7396745;19;20046;-65
2022/12/19 03:14:47;;;;;;;27.33;12.38;;;;;;;;;;7394072;19;20007;-65
2022/12/19 03:17:13;;;;;;;26.02;10.63;;;;;;;;;;7396599;19;19999;-66
2022/12/19 03:19:39;;;;;;;32.83;11.88;;;;;;;;;;7395200;19;20015;-65
2022/12/19 03:22:06;;;;;;;28.00;11.68;;;;;;;;;;7397675;19;20024;-66
2022/12/19 03:24:31;;;;;;;35.08;13.13;;;;;;;;;;7394137;19;20074;-66
2022/12/19 03:27:03;;;;;;;35.38;12.20;;;;;;;;;;7396372;19;20355;-66
2022/12/19 03:29:55;;;;;;;26.63;10.70;;;;;;;;;;7396529;19;20006;-66
2022/12/19 03:32:21;;;;;;;;;;;;;;;;;;7397869;19;20019;-66
2022/12/19 03:34:56;;;;;;;27.10;9.98;;;;;;;;;;7393395;19;19919;-65
2022/12/19 03:37:24;;;;;;;28.55;10.65;;;;;;;;;;7395973;19;20062;-67
2022/12/19 03:39:54;;;;;;;31.00;12.18;;;;;;;;;;7395975;19;20003;-66
2022/12/19 03:45:10;;;;;;;34.95;13.68;;;;;;;;;;7396562;19;20032;-65
2022/12/19 03:47:49;;;;;;;30.15;12.57;;;;;;;;;;7395652;19;20010;-65
2022/12/19 03:50:14;;;;;;;26.20;12.60;;;;;;;;;;7394915;19;20070;-66
2022/12/19 03:52:49;;;;;;;27.60;12.88;;;;;;;;;;7396708;19;20007;-66
2022/12/19 03:55:25;;;;;;;32.92;13.18;;;;;;;;;;7395440;19;19995;-65
2022/12/19 03:57:58;;;;;;;30.33;13.02;;;;;;;;;;7395186;19;20002;-65
2022/12/19 04:00:25;;;;;;;32.85;12.55;;;;;;;;;;7400222;19;20001;-66
2022/12/19 04:02:54;;;;;;;27.65;12.40;;;;;;;;;;7394520;19;20070;-66
2022/12/19 04:05:25;;;;;;;29.02;12.50;;;;;;;;;;7395758;19;20006;-66
2022/12/19 04:07:54;;;;;;;36.08;13.48;;;;;;;;;;7399117;19;20002;-66
2022/12/19 04:10:22;;;;;;;30.40;13.18;;;;;;;;;;7395995;19;19994;-66
2022/12/19 04:12:55;;;;;;;32.50;13.18;;;;;;;;;;7394253;19;20010;-66
2022/12/19 04:15:30;;;;;;;33.63;13.40;;;;;;;;;;7395756;19;20002;-66
2022/12/19 04:17:58;;;;;;;29.27;12.57;;;;;;;;;;7392876;19;19995;-67
2022/12/19 04:20:26;;;;;;;34.08;13.50;;;;;;;;;;7392371;19;20014;-65
2022/12/19 04:22:57;;;;;;;30.02;11.65;;;;;;;;;;7393523;19;20036;-65
2022/12/19 04:25:33;;;;;;;32.55;14.55;;;;;;;;;;7394826;19;19999;-66
2022/12/19 04:28:04;;;;;;;34.50;13.50;;;;;;;;;;7394493;19;20009;-66
2022/12/19 04:30:31;;;;;;;39.75;15.18;;;;;;;;;;7392884;19;20007;-65
2022/12/19 04:32:57;;;;;;;30.13;12.20;;;;;;;;;;7393260;19;19999;-65
2022/12/19 04:35:22;;;;;;;34.25;13.38;;;;;;;;;;7393949;19;20005;-66
2022/12/19 04:37:48;;;;;;;34.60;13.80;;;;;;;;;;7394328;19;20002;-65
2022/12/19 04:40:13;;;;;;;23.98;11.43;;;;;;;;;;7394006;19;20314;-65
2022/12/19 04:42:38;;;;;;;33.83;12.32;;;;;;;;;;7397446;19;20074;-66
2022/12/19 04:45:04;;;;;;;32.55;13.23;;;;;;;;;;7391927;19;20023;-65
2022/12/19 04:47:30;;;;;;;33.70;13.18;;;;;;;;;;7392160;19;20003;-65
2022/12/19 04:49:55;;;;;;;38.33;13.23;;;;;;;;;;7393295;19;19998;-66
2022/12/19 04:52:20;;;;;;;24.70;11.77;;;;;;;;;;7393748;19;20005;-67
2022/12/19 04:54:46;;;;;;;30.10;12.30;;;;;;;;;;7390260;19;20003;-68
2022/12/19 04:57:11;;;;;;;34.13;12.50;;;;;;;;;;7395169;19;20501;-67
2022/12/19 04:59:37;;;;;;;27.33;11.70;;;;;;;;;;7393284;19;20062;-65
2022/12/19 05:02:02;;;;;;;28.80;12.48;;;;;;;;;;7393428;19;20020;-66
2022/12/19 05:04:27;;;;;;;43.75;13.18;;;;;;;;;;7391241;19;20003;-66
2022/12/19 05:06:53;;;;;;;33.60;12.55;;;;;;;;;;7391755;19;20047;-66
2022/12/19 05:09:18;;;;;;;23.75;10.48;;;;;;;;;;7393555;19;20066;-66
2022/12/19 05:11:44;;;;;;;31.88;12.23;;;;;;;;;;7391514;19;19995;-66
2022/12/19 05:14:09;;;;;;;37.15;12.93;;;;;;;;;;7391643;19;20011;-66
2022/12/19 05:16:34;;;;;;;35.78;13.73;;;;;;;;;;7393553;19;20058;-67
2022/12/19 05:19:00;;;;;;;42.25;13.75;;;;;;;;;;7391172;19;19987;-67
2022/12/19 05:21:26;;;;;;;30.88;12.40;;;;;;;;;;7392998;19;20569;-67
2022/12/19 05:23:51;;;;;;;30.38;12.45;;;;;;;;;;7391316;19;20009;-67
2022/12/19 05:26:16;;;;;;;37.40;13.32;;;;;;;;;;7392917;19;20024;-66
2022/12/19 05:28:42;;;;;;;39.10;13.73;;;;;;;;;;7392621;19;19987;-66
2022/12/19 05:31:09;;;;;;;33.28;14.30;;;;;;;;;;7391173;19;20010;-66
2022/12/19 05:33:35;;;;;;;29.02;13.35;;;;;;;;;;7391179;19;20010;-67
2022/12/19 05:36:01;;;;;;;27.98;12.45;;;;;;;;;;7391968;19;20406;-65
2022/12/19 05:38:27;;;;;;;34.72;13.23;;;;;;;;;;7388091;19;20054;-66
2022/12/19 05:40:53;;;;;;;28.95;12.65;;;;;;;;;;7387307;19;20032;-66
2022/12/19 05:43:18;;;;;;;30.42;14.35;;;;;;;;;;7385691;19;20002;-66
2022/12/19 05:45:43;;;;;;;45.95;14.60;;;;;;;;;;7390599;19;20455;-66
2022/12/19 05:48:09;;;;;;;34.10;13.43;;;;;;;;;;7396206;19;19991;-66
2022/12/19 05:50:34;;;;;;;33.33;14.02;;;;;;;;;;7394694;19;19998;-66
2022/12/19 05:52:59;;;;;;;32.03;12.75;;;;;;;;;;7390619;19;20022;-65
2022/12/19 05:55:24;;;;;;;32.53;13.70;;;;;;;;;;7395589;19;19998;-67
2022/12/19 05:57:50;;;;;;;38.92;12.43;;;;;;;;;;7391932;19;19994;-67
2022/12/19 06:00:15;;;;;;;35.42;11.75;;;;;;;;;;7391689;19;20006;-66
2022/12/19 06:02:41;;;;;;;37.08;14.05;;;;;;;;;;7390857;19;20339;-66
2022/12/19 06:05:08;;;;;;;37.80;14.07;;;;;;;;;;7391116;19;20460;-66
2022/12/19 06:07:34;;;;;;;27.90;13.57;;;;;;;;;;7390358;19;20066;-66
2022/12/19 06:10:00;;;;;;;40.00;13.20;;;;;;;;;;7392057;19;20469;-66
2022/12/19 06:12:25;;;;;;;33.33;12.93;;;;;;;;;;7393992;19;20024;-67
2022/12/19 06:14:51;;;;;;;41.08;13.63;;;;;;;;;;7388117;19;20003;-67
2022/12/19 06:17:16;;;;;;;30.25;13.05;;;;;;;;;;7391216;19;20184;-67
2022/12/19 06:19:43;;;;;;;28.92;12.68;;;;;;;;;;7391120;19;20005;-66
2022/12/19 06:22:08;;;;;;;29.45;11.60;;;;;;;;;;7390993;19;19998;-66
2022/12/19 06:24:33;;;;;;;37.47;14.65;;;;;;;;;;7388728;19;20014;-66
2022/12/19 06:26:58;;;;;;;28.25;13.20;;;;;;;;;;7385009;19;20654;-66
2022/12/19 06:29:24;;;;;;;37.70;12.55;;;;;;;;;;7385921;19;20001;-66
2022/12/19 06:31:49;;;;;;;28.88;13.23;;;;;;;;;;7388970;19;20115;-80
2022/12/19 06:34:15;;;;;;;35.78;13.65;;;;;;;;;;7388842;19;20357;-66
2022/12/19 06:36:40;;;;;;;38.55;13.88;;;;;;;;;;7389591;19;19998;-66
2022/12/19 06:39:05;;;;;;;34.40;13.07;;;;;;;;;;7389030;19;19999;-66
2022/12/19 06:44:17;;;;;;;31.85;15.52;;;;;;;;;;7392723;19;20085;-66
2022/12/19 06:46:43;;;;;;;32.63;12.15;;;;;;;;;;7389985;19;20790;-66
2022/12/19 06:49:09;;;;;;;34.15;12.90;;;;;;;;;;7388761;19;20519;-66
2022/12/19 06:51:35;;;;;;;34.78;14.10;;;;;;;;;;7389697;19;20002;-66
2022/12/19 06:54:00;;;;;;;31.17;13.10;;;;;;;;;;7390630;19;20013;-66
2022/12/19 06:56:26;;;;;;;34.15;12.68;;;;;;;;;;7393730;19;20061;-66
2022/12/19 06:58:52;;;;;;;26.75;12.73;;;;;;;;;;7397000;19;20490;-66
2022/12/19 07:01:25;;;;;;;35.38;13.82;;;;;;;;;;7396000;19;19998;-66
2022/12/19 07:03:51;;;;;;;33.53;13.95;;;;;;;;;;7395198;19;19999;-66
2022/12/19 07:06:16;;;;;;;24.45;12.35;;;;;;;;;;7395751;19;20018;-66
2022/12/19 07:08:42;;;;;;;26.95;13.18;;;;;;;;;;7391010;19;19986;-66
2022/12/19 07:11:07;;;;;;;32.85;13.43;;;;;;;;;;7388790;19;19999;-66
2022/12/19 07:13:32;;;;;;;41.40;13.80;;;;;;;;;;7393674;19;20007;-66
2022/12/19 07:16:01;;;;;;;33.97;13.73;;;;;;;;;;7395633;19;20010;-66
2022/12/19 07:18:29;;;;;;;29.50;12.77;;;;;;;;;;7384730;19;20010;-69
2022/12/19 07:20:55;;;;;;;41.67;13.75;;;;;;;;;;7396148;19;20497;-68
2022/12/19 07:23:21;;;;;;;48.80;14.65;;;;;;;;;;7391556;19;20020;-67
2022/12/19 07:25:46;;;;;;;34.28;14.05;;;;;;;;;;7397410;19;20008;-68
2022/12/19 07:28:13;;;;;;;30.92;13.75;;;;;;;;;;7397050;19;20062;-69
2022/12/19 07:30:38;;;;;;;39.55;15.63;;;;;;;;;;7395676;19;20003;-68
2022/12/19 07:33:03;;;;;;;32.33;12.88;;;;;;;;;;7393589;19;20003;-69
2022/12/19 07:35:29;;;;;;;39.88;14.98;;;;;;;;;;7396976;19;19990;-69
2022/12/19 07:37:59;;;;;;;28.50;12.25;;;;;;;;;;7394587;19;19999;-69
2022/12/19 07:40:25;;;;;;;38.10;13.95;;;;;;;;;;7396110;19;20419;-69
2022/12/19 07:42:50;;;;;;;39.58;14.05;;;;;;;;;;7395459;19;19994;-68
2022/12/19 07:45:15;;;;;;;37.35;15.32;;;;;;;;;;7394540;19;20007;-69
2022/12/19 07:47:40;;;;;;;34.35;13.30;;;;;;;;;;7396623;19;20002;-68
2022/12/19 07:50:06;;;;;;;37.47;13.23;;;;;;;;;;7395004;19;20475;-69
2022/12/19 07:52:31;;;;;;;26.33;13.57;;;;;;;;;;7393675;19;20034;-69
2022/12/19 07:54:57;;;;;;;35.67;13.50;;;;;;;;;;7390520;19;20018;-69
2022/12/19 07:57:22;;;;;;;38.45;14.15;;;;;;;;;;7395624;19;20007;-72
2022/12/19 07:59:47;;;;;;;32.72;12.38;;;;;;;;;;7394042;19;20354;-71
2022/12/19 08:02:13;;;;;;;33.20;14.63;;;;;;;;;;7398565;19;20058;-68
2022/12/19 08:04:38;;;;;;;29.63;12.88;;;;;;;;;;7394927;19;20002;-68
2022/12/19 08:07:03;;;;;;;35.47;15.27;;;;;;;;;;7399611;19;20028;-68
2022/12/19 08:09:29;;;;;;;38.67;14.55;;;;;;;;;;7394975;19;20006;-68
2022/12/19 08:11:54;;;;;;;35.20;13.90;;;;;;;;;;7391935;19;19999;-69
2022/12/19 08:14:20;;;;;;;31.88;13.60;;;;;;;;;;7391988;19;20011;-68
2022/12/19 08:16:45;;;;;;;35.80;16.02;;;;;;;;;;7394802;19;20019;-67
2022/12/19 08:19:11;;;;;;;32.22;15.05;;;;;;;;;;7398312;19;20003;-68
2022/12/19 08:21:36;;;;;;;29.52;14.18;;;;;;;;;;7397021;19;20001;-68
2022/12/19 08:24:01;;;;;;;36.42;13.35;;;;;;;;;;7395728;19;19994;-67
2022/12/19 08:26:27;;;;;;;37.75;16.00;;;;;;;;;;7395813;19;20009;-68
2022/12/19 08:28:57;;;;;;;35.03;13.35;;;;;;;;;;7393664;19;19998;-67
2022/12/19 08:31:24;;;;;;;34.58;13.68;;;;;;;;;;7392832;19;19987;-67
2022/12/19 08:33:54;;;;;;;30.98;13.68;;;;;;;;;;7393430;19;19998;-70
2022/12/19 08:36:20;;;;;;;35.58;13.98;;;;;;;;;;7393729;19;20001;-69
2022/12/19 08:38:47;;;;;;;27.92;13.07;;;;;;;;;;7395559;19;19997;-70
2022/12/19 08:41:14;;;;;;;40.17;14.27;;;;;;;;;;7390948;19;20426;-73
2022/12/19 08:43:40;;;;;;;35.60;15.45;;;;;;;;;;7393783;19;19998;-72
2022/12/19 08:46:08;;;;;;;32.92;13.20;;;;;;;;;;7393079;19;19998;-71
2022/12/19 08:48:34;;;;;;;31.17;13.30;;;;;;;;;;7393561;19;19994;-65
2022/12/19 08:51:05;;;;;;;33.05;16.50;;;;;;;;;;7393053;19;19994;-65
2022/12/19 08:53:32;;;;;;;45.78;16.02;;;;;;;;;;7391159;19;20014;-68
2022/12/19 08:56:00;;;;;;;41.70;16.15;;;;;;;;;;7393698;19;20078;-69
2022/12/19 08:58:27;;;;;;;42.90;15.70;;;;;;;;;;7394330;19;20199;-68
2022/12/19 09:00:53;;;;;;;35.72;14.25;;;;;;;;;;7392736;19;19994;-69
2022/12/19 09:03:21;;;;;;;40.90;15.60;;;;;;;;;;7389648;19;20318;-69
2022/12/19 09:05:53;;;;;;;42.55;16.13;;;;;;;;;;7390883;19;19995;-70
2022/12/19 09:08:18;;;;;;;41.92;14.73;;;;;;;;;;7393380;19;20019;-70
2022/12/19 09:10:44;;;;;;;30.98;15.73;;;;;;;;;;7392495;19;19994;-69
2022/12/19 09:13:09;;;;;;;41.28;14.90;;;;;;;;;;7392307;19;20010;-69
2022/12/19 09:15:34;;;;;;;34.20;14.82;;;;;;;;;;7392488;19;19999;-69
2022/12/19 09:18:00;;;;;;;31.10;14.02;;;;;;;;;;7392830;19;19998;-71
2022/12/19 09:20:25;;;;;;;31.10;13.02;;;;;;;;;;7392419;19;19995;-70
2022/12/19 09:22:50;;;;;;;36.58;14.25;;;;;;;;;;7392326;19;20082;-70
2022/12/19 09:25:16;;;;;;;38.33;15.13;;;;;;;;;;7390416;19;20236;-70
2022/12/19 09:27:41;;;;;;;34.72;13.98;;;;;;;;;;7393019;19;20372;-69
2022/12/19 09:30:07;;;;;;;31.23;13.60;;;;;;;;;;7390913;19;20007;-70
2022/12/19 09:32:32;;;;;;;38.35;13.45;;;;;;;;;;7391548;19;20503;-69
2022/12/19 09:34:58;;;;;;;39.63;14.73;;;;;;;;;;7390654;19;20036;-66
2022/12/19 09:37:23;;;;;;;39.67;14.82;;;;;;;;;;7392685;19;19998;-66
2022/12/19 09:39:48;;;;;;;35.92;14.93;;;;;;;;;;7392582;19;19994;-65
2022/12/19 09:42:50;;;;;;;34.03;15.02;;;;;;;;;;7388214;19;19999;-66
2022/12/19 09:45:32;;;;;;;38.08;16.05;;;;;;;;;;7392400;19;19999;-66
2022/12/19 09:47:58;;;;;;;35.88;14.13;;;;;;;;;;7392509;19;19997;-68
2022/12/19 09:50:43;;;;;;;35.75;14.32;;;;;;;;;;7383060;19;20002;-68
2022/12/19 09:53:32;;;;;;;42.20;14.23;;;;;;;;;;7389435;19;20099;-66
2022/12/19 09:55:59;;;;;;;34.30;13.18;;;;;;;;;;7392249;19;19990;-66
2022/12/19 09:58:39;;;;;;;38.38;15.77;;;;;;;;;;7392936;19;19994;-66
2022/12/19 10:01:13;;;;;;;33.40;14.80;;;;;;;;;;7390924;19;20027;-66
2022/12/19 10:03:45;;;;;;;43.85;15.25;;;;;;;;;;7386360;19;20274;-68
2022/12/19 10:06:18;;;;;;;34.45;14.52;;;;;;;;;;7391158;19;20006;-68
2022/12/19 10:08:44;;;;;;;31.98;14.65;;;;;;;;;;7389738;19;19998;-68
2022/12/19 10:11:16;;;;;;;38.83;14.82;;;;;;;;;;7389519;19;19999;-65
2022/12/19 10:14:05;;;;;;;40.15;16.27;;;;;;;;;;7389011;19;20006;-67
2022/12/19 10:16:49;;;;;;;40.40;14.75;;;;;;;;;;7389402;19;20011;-66
2022/12/19 10:19:28;;;;;;;34.08;13.68;;;;;;;;;;7387652;19;20463;-66
2022/12/19 10:22:08;;;;;;;39.50;15.80;;;;;;;;;;7393506;19;20464;-66
2022/12/19 10:24:36;;;;;;;35.90;15.68;;;;;;;;;;7390157;19;20102;-68
2022/12/19 10:27:20;;;;;;;37.90;16.45;;;;;;;;;;7388262;19;20027;-68
2022/12/19 10:29:57;;;;;;;35.92;16.65;;;;;;;;;;7389938;19;20027;-68
2022/12/19 10:32:53;;;;;;;45.55;17.30;;;;;;;;;;7385721;19;20010;-67
2022/12/19 10:35:19;;;;;;;32.38;13.90;;;;;;;;;;7389338;19;20404;-68
2022/12/19 10:38:07;;;;;;;37.63;15.20;;;;;;;;;;7390398;19;20113;-69
2022/12/19 10:40:38;;;;;;;33.95;14.27;;;;;;;;;;7387698;19;20449;-68
2022/12/19 10:43:12;;;;;;;39.00;14.13;;;;;;;;;;7385094;19;20019;-69
2022/12/19 10:45:43;;;;;;;51.05;15.57;;;;;;;;;;7394227;19;20026;-67
2022/12/19 10:48:14;;;;;;;;;;;;;;;;;;7395541;19;20001;-68
2022/12/19 10:50:39;;;;;;;38.00;12.65;;;;;;;;;;7387049;19;19929;-65
2022/12/19 10:53:12;;;;;;;35.75;15.82;;;;;;;;;;7378666;19;19999;-74
2022/12/19 10:55:49;;;;;;;35.58;13.85;;;;;;;;;;7386204;19;19994;-75
2022/12/19 10:58:20;;;;;;;35.85;15.20;;;;;;;;;;7387381;19;20014;-66
2022/12/19 11:00:55;;;;;;;;;;;;;;;;;;7388858;19;19999;-67
2022/12/19 11:03:21;;;;;;;32.72;13.88;;;;;;;;;;7384419;19;19951;-66
2022/12/19 11:05:54;;;;;;;34.38;17.10;;;;;;;;;;7384652;19;20102;-67
2022/12/19 11:08:37;;;;;;;36.55;15.75;;;;;;;;;;7381891;19;20595;-69
2022/12/19 11:11:03;;;;;;;33.05;15.07;;;;;;;;;;7379230;19;20476;-70
2022/12/19 11:13:31;;;;;;;44.45;15.48;;;;;;;;;;7380187;19;20002;-69
2022/12/19 11:15:58;;;;;;;39.33;14.50;;;;;;;;;;7382308;19;20003;-70
2022/12/19 11:18:32;;;;;;;42.10;16.23;;;;;;;;;;7388168;19;19998;-69
2022/12/19 11:21:19;;;;;;;39.88;16.42;;;;;;;;;;7388660;19;20058;-68
2022/12/19 11:24:10;;;;;;;41.22;16.25;;;;;;;;;;7386016;19;19998;-70
2022/12/19 11:26:38;;;;;;;42.33;15.82;;;;;;;;;;7389079;19;20357;-69
2022/12/19 11:29:44;;;;;;;39.47;15.45;;;;;;;;;;7386552;19;20002;-71
2022/12/19 11:32:30;;;;;;;35.88;15.45;;;;;;;;;;7394803;19;20116;-65
2022/12/19 11:35:00;;;;;;;37.97;15.63;;;;;;;;;;7391485;19;19999;-65
2022/12/19 11:37:55;;;;;;;42.47;15.70;;;;;;;;;;7392877;19;19998;-65
2022/12/19 11:40:40;;;;;;;39.17;14.85;;;;;;;;;;7395537;19;19999;-65
2022/12/19 11:43:13;;;;;;;43.58;14.68;;;;;;;;;;7393068;19;20481;-64
2022/12/19 11:45:48;;;;;;;45.83;16.67;;;;;;;;;;7394743;19;20556;-64
2022/12/19 11:48:46;;;;;;;50.42;17.73;;;;;;;;;;7396919;19;19999;-65
2022/12/19 11:51:17;;;;;;;35.47;15.32;;;;;;;;;;7391709;19;19991;-64
2022/12/19 11:53:48;;;;;;;46.60;14.07;;;;;;;;;;7392450;19;20352;-68
2022/12/19 11:56:20;;;;;;;36.35;15.98;;;;;;;;;;7394005;19;20030;-69
2022/12/19 11:58:50;;;;;;;37.97;14.50;;;;;;;;;;7395302;19;20016;-69
2022/12/19 12:01:21;;;;;;;32.70;15.18;;;;;;;;;;7393646;19;20006;-70
2022/12/19 12:04:24;;;;;;;39.33;17.42;;;;;;;;;;7393356;19;20034;-71
2022/12/19 12:06:54;;;;;;;40.13;16.27;;;;;;;;;;7393948;19;20119;-69
2022/12/19 12:09:33;;;;;;;35.75;16.23;;;;;;;;;;7395539;19;19994;-69
2022/12/19 12:12:31;;;;;;;38.70;15.40;;;;;;;;;;7393723;19;20074;-68
2022/12/19 12:15:23;;;;;;;44.03;16.50;;;;;;;;;;7393167;19;20379;-66
2022/12/19 12:18:10;;;;;;;42.70;15.63;;;;;;;;;;7387538;19;20000;-67
2022/12/19 12:20:54;;;;;;;47.15;17.38;;;;;;;;;;7392594;19;20079;-67
2022/12/19 12:23:27;;;;;;;44.80;17.05;;;;;;;;;;7393445;19;20327;-68
2022/12/19 12:26:24;;;;;;;46.47;16.77;;;;;;;;;;7393452;19;19998;-68
2022/12/19 12:28:58;;;;;;;37.92;16.73;;;;;;;;;;7394497;19;20001;-68
2022/12/19 12:31:36;;;;;;;38.38;16.48;;;;;;;;;;7388237;19;20003;-68
2022/12/19 12:34:18;;;;;;;41.00;16.40;;;;;;;;;;7391715;19;20005;-68
2022/12/19 12:37:14;;;;;;;41.38;16.10;;;;;;;;;;7393600;19;20014;-66
2022/12/19 12:39:48;;;;;;;46.75;16.70;;;;;;;;;;7390246;19;20005;-66
2022/12/19 12:42:38;;;;;;;55.97;17.63;;;;;;;;;;7391387;19;20492;-68
2022/12/19 12:45:17;;;;;;;35.83;16.33;;;;;;;;;;7391517;19;20002;-68
2022/12/19 12:47:49;;;;;;;39.72;16.48;;;;;;;;;;7394491;19;20015;-67
2022/12/19 12:50:16;;;;;;;44.55;16.63;;;;;;;;;;7390278;19;20003;-65
2022/12/19 12:52:48;;;;;;;47.47;17.42;;;;;;;;;;7392718;19;20478;-67
2022/12/19 12:55:19;;;;;;;38.25;16.00;;;;;;;;;;7393194;19;20451;-72
2022/12/19 12:57:44;;;;;;;55.33;17.07;;;;;;;;;;7394311;19;20003;-70
2022/12/19 13:00:28;;;;;;;42.50;17.33;;;;;;;;;;7391244;19;20029;-69
2022/12/19 13:03:09;;;;;;;42.25;16.05;;;;;;;;;;7393050;19;20152;-70
2022/12/19 13:05:59;;;;;;;40.50;16.48;;;;;;;;;;7337797;19;1005021;-70
2022/12/19 13:08:33;;;;;;;40.95;16.75;;;;;;;;;;7392581;19;20003;-71
2022/12/19 13:11:02;;;;;;;34.25;14.43;;;;;;;;;;7391350;19;20054;-67
2022/12/19 13:13:47;;;;;;;45.65;15.98;;;;;;;;;;7389950;19;20023;-68
2022/12/19 13:16:43;;;;;;;38.45;16.83;;;;;;;;;;7393984;19;20002;-69
2022/12/19 13:19:16;;;;;;;45.78;15.73;;;;;;;;;;7389545;19;20030;-65
2022/12/19 13:22:03;;;;;;;42.05;15.80;;;;;;;;;;7391878;19;20002;-68
2022/12/19 13:24:48;;;;;;;37.35;15.75;;;;;;;;;;7390860;19;20006;-68
2022/12/19 13:27:17;;;;;;;40.80;16.55;;;;;;;;;;7391251;19;20030;-68
2022/12/19 13:30:11;;;;;;;40.22;16.00;;;;;;;;;;7390514;19;20689;-68
2022/12/19 13:32:39;;;;;;;39.58;15.63;;;;;;;;;;7390359;19;20002;-69
2022/12/19 13:35:24;;;;;;;45.30;16.73;;;;;;;;;;7389356;19;20002;-70
2022/12/19 13:37:59;;;;;;;32.83;14.43;;;;;;;;;;7390518;19;19998;-66
2022/12/19 13:45:58;;;;;;;44.95;15.48;;;;;;;;;;7388362;19;20476;-73
2022/12/19 13:48:31;;;;;;;41.65;16.00;;;;;;;;;;7389430;19;20006;-74
2022/12/19 13:51:02;;;;;;;39.90;16.58;;;;;;;;;;7387945;19;20331;-73
2022/12/19 13:53:28;;;;;;;37.47;15.77;;;;;;;;;;7389534;19;20002;-75
2022/12/19 13:56:02;;;;;;;45.92;17.63;;;;;;;;;;7390090;19;20006;-71
2022/12/19 13:58:49;;;;;;;33.97;15.75;;;;;;;;;;7377804;19;20002;-69
2022/12/19 14:01:31;;;;;;;39.05;15.10;;;;;;;;;;7381913;19;20002;-70
2022/12/19 14:04:02;;;;;;;43.55;15.35;;;;;;;;;;7382123;19;20010;-70
2022/12/19 14:06:46;;;;;;;39.45;16.65;;;;;;;;;;7385137;19;20033;-71
2022/12/19 14:09:24;;;;;;;38.00;16.00;;;;;;;;;;7390655;19;20003;-70
2022/12/19 14:11:50;;;;;;;40.88;15.55;;;;;;;;;;7390255;19;20010;-71
2022/12/19 14:17:12;;;;;;;32.25;15.43;;;;;;;;;;7391859;19;20013;-71
2022/12/19 14:19:47;;;;;;;40.90;16.15;;;;;;;;;;7389027;19;20007;-69
2022/12/19 14:22:16;;;;;;;46.80;17.95;;;;;;;;;;7389200;19;20007;-71
2022/12/19 14:24:59;;;;;;;45.97;17.02;;;;;;;;;;7390308;19;20002;-71
2022/12/19 14:27:38;;;;;;;40.40;16.70;;;;;;;;;;7390922;19;20003;-70
2022/12/19 14:30:06;;;;;;;38.47;16.10;;;;;;;;;;7389559;19;20015;-71
2022/12/19 14:32:33;;;;;;;37.97;17.25;;;;;;;;;;7386403;19;20019;-70
2022/12/19 14:35:07;;;;;;;39.15;15.07;;;;;;;;;;7388946;19;20066;-71
2022/12/19 14:37:38;;;;;;;39.75;17.15;;;;;;;;;;7389387;19;20032;-73
2022/12/19 14:40:23;;;;;;;34.85;14.77;;;;;;;;;;7387145;19;20038;-70
2022/12/19 14:45:39;;;;;;;47.67;16.77;;;;;;;;;;7383932;19;20483;-70
2022/12/19 14:48:31;;;;;;;36.47;15.20;;;;;;;;;;7385627;19;20014;-69
2022/12/19 14:51:08;;;;;;;42.42;16.27;;;;;;;;;;7384344;19;20007;-74
2022/12/19 14:53:35;;;;;;;35.08;15.90;;;;;;;;;;7382846;19;20539;-74
2022/12/19 14:56:10;;;;;;;43.13;16.65;;;;;;;;;;7382769;19;20446;-73
2022/12/19 14:58:37;;;;;;;42.15;16.15;;;;;;;;;;7389927;19;20378;-74